createdAt,value
2022-12-11T00:00:32.794Z,21.20
2022-12-11T00:02:15.245Z,19.70
2022-12-11T00:03:19.568Z,19.90
2022-12-11T00:04:24.024Z,23.00
2022-12-11T00:05:28.065Z,21.40
2022-12-11T00:06:32.064Z,18.40
2022-12-11T00:07:35.991Z,20.90
2022-12-11T00:08:39.871Z,20.40
2022-12-11T00:09:43.961Z,19.60
2022-12-11T00:10:49.923Z,18.80
2022-12-11T00:11:54.081Z,21.60
2022-12-11T00:12:58.436Z,18.00
2022-12-11T00:14:02.950Z,19.20
2022-12-11T00:15:07.760Z,19.60
2022-12-11T00:16:12.540Z,21.90
2022-12-11T00:17:16.517Z,21.40
2022-12-11T00:18:20.443Z,18.30
2022-12-11T00:19:24.728Z,22.30
2022-12-11T00:20:28.520Z,21.20
2022-12-11T00:21:33.075Z,24.00
2022-12-11T00:22:37.289Z,21.30
2022-12-11T00:23:41.881Z,20.90
2022-12-11T00:24:46.395Z,20.00
2022-12-11T00:25:50.475Z,19.00
2022-12-11T00:26:54.649Z,21.50
2022-12-11T00:27:58.663Z,22.60
2022-12-11T00:29:02.602Z,22.30
2022-12-11T00:30:07.191Z,19.10
2022-12-11T00:31:18.882Z,19.80
2022-12-11T00:32:22.977Z,22.20
2022-12-11T00:33:27.194Z,19.90
2022-12-11T00:34:31.307Z,21.30
2022-12-11T00:35:42.541Z,20.80
2022-12-11T00:36:46.506Z,20.80
2022-12-11T00:37:50.452Z,20.80
2022-12-11T00:38:54.956Z,19.30
2022-12-11T00:39:58.812Z,20.30
2022-12-11T00:41:02.943Z,22.60
2022-12-11T00:42:07.856Z,20.60
2022-12-11T00:43:12.505Z,17.90
2022-12-11T00:44:16.407Z,22.30
2022-12-11T00:45:20.321Z,21.30
2022-12-11T00:46:24.376Z,23.00
2022-12-11T00:47:28.443Z,20.50
2022-12-11T00:48:32.485Z,21.40
2022-12-11T00:49:36.427Z,21.00
2022-12-11T00:50:40.730Z,18.90
2022-12-11T00:51:44.656Z,19.20
2022-12-11T00:52:48.562Z,19.30
2022-12-11T00:53:52.838Z,19.70
2022-12-11T00:54:56.638Z,22.70
2022-12-11T00:56:00.501Z,21.10
2022-12-11T00:57:04.336Z,18.40
2022-12-11T00:58:08.320Z,22.50
2022-12-11T00:59:12.190Z,19.20
2022-12-11T01:00:16.436Z,20.90
2022-12-11T01:01:23.103Z,21.10
2022-12-11T01:02:27.104Z,21.60
2022-12-11T01:03:31.173Z,21.60
2022-12-11T01:04:36.641Z,21.00
2022-12-11T01:05:40.919Z,20.70
2022-12-11T01:06:45.001Z,21.20
2022-12-11T01:07:49.261Z,19.90
2022-12-11T01:09:13.510Z,20.80
2022-12-11T01:10:26.754Z,19.10
2022-12-11T01:11:30.610Z,21.60
2022-12-11T01:12:34.536Z,18.40
2022-12-11T01:13:39.640Z,19.60
2022-12-11T01:14:43.430Z,20.70
2022-12-11T01:15:47.283Z,21.20
2022-12-11T01:16:51.272Z,20.80
2022-12-11T01:17:55.645Z,21.60
2022-12-11T01:19:00.339Z,19.90
2022-12-11T01:21:12.354Z,16.00
2022-12-11T01:22:16.168Z,22.00
2022-12-11T01:23:20.234Z,22.40
2022-12-11T01:24:24.715Z,24.60
2022-12-11T01:25:28.927Z,25.60
2022-12-11T01:26:32.813Z,24.50
2022-12-11T01:27:38.287Z,24.80
2022-12-11T01:28:43.088Z,22.30
2022-12-11T01:29:47.027Z,21.40
2022-12-11T01:30:50.954Z,22.40
2022-12-11T01:31:54.831Z,21.70
2022-12-11T01:32:58.887Z,21.90
2022-12-11T01:34:02.903Z,21.90
2022-12-11T01:35:08.818Z,20.50
2022-12-11T01:36:19.264Z,22.50
2022-12-11T01:37:23.218Z,24.40
2022-12-11T01:38:27.071Z,21.90
2022-12-11T01:39:31.696Z,20.80
2022-12-11T01:40:35.497Z,23.90
2022-12-11T01:41:39.256Z,21.80
2022-12-11T01:42:43.670Z,22.00
2022-12-11T01:43:57.783Z,24.00
2022-12-11T01:45:32.416Z,24.20
2022-12-11T01:46:36.827Z,22.80
2022-12-11T01:47:40.830Z,26.10
2022-12-11T01:48:44.704Z,23.70
2022-12-11T01:49:48.578Z,23.20
2022-12-11T01:50:55.439Z,19.90
2022-12-11T01:52:06.153Z,19.80
2022-12-11T01:53:14.506Z,20.90
2022-12-11T01:54:22.869Z,16.80
2022-12-11T01:55:27.054Z,19.20
2022-12-11T01:56:34.131Z,18.20
2022-12-11T01:57:41.311Z,19.70
2022-12-11T01:58:57.583Z,23.00
2022-12-11T02:00:01.568Z,19.60
2022-12-11T02:01:05.760Z,20.60
2022-12-11T02:02:20.505Z,21.00
2022-12-11T02:03:25.015Z,19.90
2022-12-11T02:04:29.942Z,19.40
2022-12-11T02:05:33.932Z,21.60
2022-12-11T02:06:39.057Z,23.80
2022-12-11T02:07:52.563Z,20.80
2022-12-11T02:08:56.533Z,20.30
2022-12-11T02:10:00.462Z,20.70
2022-12-11T02:11:21.624Z,21.50
2022-12-11T02:12:41.617Z,22.30
2022-12-11T02:14:07.336Z,19.60
2022-12-11T02:15:35.381Z,18.60
2022-12-11T02:16:50.352Z,18.30
2022-12-11T02:18:15.012Z,19.30
2022-12-11T02:19:48.393Z,19.80
2022-12-11T02:21:02.977Z,19.60
2022-12-11T02:22:11.451Z,16.80
2022-12-11T02:23:36.435Z,20.00
2022-12-11T02:25:04.725Z,19.30
2022-12-11T02:26:35.833Z,16.90
2022-12-11T02:28:20.977Z,19.70
2022-12-11T02:29:50.149Z,16.20
2022-12-11T02:31:01.845Z,17.00
2022-12-11T02:32:25.240Z,19.40
2022-12-11T02:33:38.978Z,20.40
2022-12-11T02:35:10.223Z,19.80
2022-12-11T02:36:16.261Z,17.50
2022-12-11T02:37:23.863Z,20.50
2022-12-11T02:38:37.519Z,22.10
2022-12-11T02:39:43.450Z,18.90
2022-12-11T02:40:49.552Z,20.10
2022-12-11T02:41:55.156Z,20.70
2022-12-11T02:43:02.830Z,20.00
2022-12-11T02:44:07.268Z,20.50
2022-12-11T02:45:13.319Z,17.80
2022-12-11T02:46:20.151Z,22.50
2022-12-11T02:47:26.843Z,17.80
2022-12-11T02:48:32.439Z,18.60
2022-12-11T02:49:36.445Z,19.30
2022-12-11T02:50:44.543Z,18.70
2022-12-11T02:51:50.027Z,22.10
2022-12-11T02:52:56.974Z,18.90
2022-12-11T02:54:01.639Z,19.80
2022-12-11T02:55:07.867Z,19.50
2022-12-11T02:56:18.162Z,19.20
2022-12-11T02:57:35.924Z,19.40
2022-12-11T02:58:48.442Z,20.80
2022-12-11T02:59:52.784Z,21.00
2022-12-11T03:00:57.032Z,22.10
2022-12-11T03:02:01.544Z,17.30
2022-12-11T03:03:06.075Z,18.20
2022-12-11T03:04:10.172Z,21.40
2022-12-11T03:05:15.391Z,19.40
2022-12-11T03:06:23.428Z,18.50
2022-12-11T03:07:34.223Z,20.00
2022-12-11T03:08:38.146Z,20.90
2022-12-11T03:09:44.433Z,18.00
2022-12-11T03:10:48.252Z,19.90
2022-12-11T03:11:52.331Z,20.60
2022-12-11T03:12:58.415Z,19.00
2022-12-11T03:14:05.750Z,18.50
2022-12-11T03:15:14.519Z,16.40
2022-12-11T03:16:35.072Z,18.60
2022-12-11T03:18:03.054Z,21.90
2022-12-11T03:19:19.217Z,17.90
2022-12-11T03:20:43.828Z,19.60
2022-12-11T03:21:54.858Z,16.50
2022-12-11T03:23:10.720Z,19.00
2022-12-11T03:24:28.624Z,19.80
2022-12-11T03:25:54.775Z,17.70
2022-12-11T03:27:09.537Z,17.80
2022-12-11T03:28:56.513Z,16.80
2022-12-11T03:30:04.853Z,17.40
2022-12-11T03:31:13.539Z,20.30
2022-12-11T03:32:24.512Z,20.40
2022-12-11T03:33:35.857Z,21.20
2022-12-11T03:34:45.050Z,19.10
2022-12-11T03:35:54.734Z,19.10
2022-12-11T03:37:00.844Z,19.40
2022-12-11T03:38:16.295Z,19.70
2022-12-11T03:39:32.294Z,17.60
2022-12-11T03:40:39.742Z,21.00
2022-12-11T03:41:46.786Z,20.00
2022-12-11T03:42:53.546Z,21.50
2022-12-11T03:43:58.978Z,21.00
2022-12-11T03:45:04.904Z,21.40
2022-12-11T03:46:09.982Z,20.00
2022-12-11T03:47:18.252Z,18.80
2022-12-11T03:48:25.260Z,21.00
2022-12-11T03:49:33.556Z,18.00
2022-12-11T03:50:37.982Z,21.10
2022-12-11T03:51:43.071Z,19.30
2022-12-11T03:52:48.117Z,20.30
2022-12-11T03:53:52.531Z,21.50
2022-12-11T03:55:01.093Z,19.90
2022-12-11T03:56:07.893Z,20.60
2022-12-11T03:57:15.113Z,23.00
2022-12-11T03:58:18.825Z,20.00
2022-12-11T03:59:22.817Z,22.20
2022-12-11T04:00:26.766Z,23.60
2022-12-11T04:01:30.893Z,21.00
2022-12-11T04:02:35.029Z,21.70
2022-12-11T04:03:39.298Z,20.30
2022-12-11T04:04:43.254Z,22.80
2022-12-11T04:05:49.894Z,23.20
2022-12-11T04:06:53.688Z,22.90
2022-12-11T04:07:57.488Z,20.30
2022-12-11T04:09:01.234Z,20.60
2022-12-11T04:10:05.452Z,25.60
2022-12-11T04:11:29.093Z,21.90
2022-12-11T04:12:32.984Z,20.20
2022-12-11T04:13:37.519Z,22.80
2022-12-11T04:14:59.718Z,22.60
2022-12-11T04:16:03.443Z,20.60
2022-12-11T04:17:07.306Z,20.60
2022-12-11T04:18:29.426Z,20.60
2022-12-11T04:19:51.669Z,19.40
2022-12-11T04:21:28.474Z,22.70
2022-12-11T04:22:51.062Z,20.10
2022-12-11T04:24:13.614Z,19.30
2022-12-11T04:25:17.439Z,17.10
2022-12-11T04:26:21.485Z,19.00
2022-12-11T04:27:43.947Z,20.60
2022-12-11T04:28:48.896Z,19.30
2022-12-11T04:29:52.596Z,20.00
2022-12-11T04:30:56.429Z,19.60
2022-12-11T04:32:00.285Z,19.30
2022-12-11T04:33:04.243Z,21.00
2022-12-11T04:34:08.197Z,17.40
2022-12-11T04:35:13.170Z,20.50
2022-12-11T04:36:17.281Z,22.30
2022-12-11T04:37:21.046Z,21.10
2022-12-11T04:38:25.271Z,18.70
2022-12-11T04:39:28.996Z,19.00
2022-12-11T04:40:32.746Z,19.50
2022-12-11T04:41:38.888Z,19.10
2022-12-11T04:42:43.079Z,22.70
2022-12-11T04:43:46.831Z,19.40
2022-12-11T04:44:50.841Z,18.10
2022-12-11T04:46:15.975Z,18.70
2022-12-11T04:47:19.905Z,22.00
2022-12-11T04:48:23.655Z,19.50
2022-12-11T04:49:27.396Z,17.70
2022-12-11T04:50:31.126Z,18.90
2022-12-11T04:51:34.898Z,20.40
2022-12-11T04:52:38.822Z,19.60
2022-12-11T04:53:43.047Z,19.30
2022-12-11T04:54:46.893Z,20.30
2022-12-11T04:55:51.238Z,18.20
2022-12-11T04:56:55.019Z,18.00
2022-12-11T04:57:58.720Z,19.10
2022-12-11T04:59:02.399Z,20.60
2022-12-11T05:00:09.738Z,19.80
2022-12-11T05:01:19.240Z,20.40
2022-12-11T05:02:23.165Z,15.50
2022-12-11T05:03:27.057Z,19.70
2022-12-11T05:04:35.135Z,20.20
2022-12-11T05:05:39.239Z,21.10
2022-12-11T05:06:43.064Z,21.00
2022-12-11T05:07:46.985Z,21.90
2022-12-11T05:08:50.819Z,22.00
2022-12-11T05:09:54.575Z,18.30
2022-12-11T05:11:03.871Z,22.20
2022-12-11T05:12:07.695Z,22.80
2022-12-11T05:13:11.416Z,23.40
2022-12-11T05:14:15.221Z,21.20
2022-12-11T05:15:19.166Z,21.30
2022-12-11T05:16:23.043Z,21.00
2022-12-11T05:17:26.954Z,18.60
2022-12-11T05:18:30.817Z,23.80
2022-12-11T05:19:34.533Z,21.50
2022-12-11T05:20:38.304Z,21.00
2022-12-11T05:21:42.063Z,20.50
2022-12-11T05:22:45.832Z,23.10
2022-12-11T05:23:49.553Z,20.20
2022-12-11T05:24:53.307Z,24.70
2022-12-11T05:26:00.003Z,21.90
2022-12-11T05:27:03.889Z,23.00
2022-12-11T05:28:07.710Z,24.30
2022-12-11T05:29:11.530Z,25.60
2022-12-11T05:30:15.323Z,27.30
2022-12-11T05:31:22.502Z,25.30
2022-12-11T05:32:26.552Z,24.60
2022-12-11T05:33:31.397Z,23.50
2022-12-11T05:34:35.129Z,22.10
2022-12-11T05:35:38.989Z,23.50
2022-12-11T05:36:42.779Z,21.30
2022-12-11T05:37:46.549Z,24.20
2022-12-11T05:38:51.195Z,25.20
2022-12-11T05:41:00.923Z,19.60
2022-12-11T05:42:04.745Z,22.80
2022-12-11T05:43:08.856Z,23.00
2022-12-11T05:44:13.374Z,24.70
2022-12-11T05:45:17.146Z,27.90
2022-12-11T05:46:23.805Z,22.30
2022-12-11T05:47:27.635Z,23.00
2022-12-11T05:48:31.364Z,22.80
2022-12-11T05:49:35.199Z,22.00
2022-12-11T05:50:38.889Z,21.50
2022-12-11T05:51:44.243Z,25.30
2022-12-11T05:52:48.127Z,21.40
2022-12-11T05:53:53.153Z,24.00
2022-12-11T05:54:57.015Z,21.50
2022-12-11T05:56:03.112Z,21.20
2022-12-11T05:57:06.827Z,27.20
2022-12-11T05:58:10.525Z,25.70
2022-12-11T05:59:14.310Z,24.60
2022-12-11T06:00:18.412Z,25.40
2022-12-11T06:01:24.189Z,22.30
2022-12-11T06:02:28.083Z,25.50
2022-12-11T06:03:31.957Z,23.10
2022-12-11T06:04:35.712Z,23.60
2022-12-11T06:05:41.780Z,24.20
2022-12-11T06:06:45.561Z,24.60
2022-12-11T06:07:49.380Z,25.90
2022-12-11T06:08:54.912Z,22.90
2022-12-11T06:09:58.704Z,26.40
2022-12-11T06:11:03.943Z,23.90
2022-12-11T06:12:07.799Z,23.80
2022-12-11T06:13:11.639Z,26.50
2022-12-11T06:14:15.475Z,23.90
2022-12-11T06:15:19.429Z,27.00
2022-12-11T06:16:24.599Z,24.00
2022-12-11T06:17:28.475Z,23.30
2022-12-11T06:18:36.480Z,20.30
2022-12-11T06:19:40.288Z,25.80
2022-12-11T06:20:44.651Z,24.50
2022-12-11T06:21:48.878Z,27.40
2022-12-11T06:22:52.590Z,26.90
2022-12-11T06:23:58.367Z,24.00
2022-12-11T06:25:02.147Z,22.70
2022-12-11T06:26:07.043Z,23.10
2022-12-11T06:27:10.786Z,24.70
2022-12-11T06:28:14.800Z,25.30
2022-12-11T06:29:18.517Z,25.00
2022-12-11T06:30:22.796Z,26.50
2022-12-11T06:31:42.910Z,23.40
2022-12-11T06:32:47.326Z,24.20
2022-12-11T06:33:51.201Z,23.90
2022-12-11T06:34:55.111Z,24.60
2022-12-11T06:36:10.596Z,23.70
2022-12-11T06:37:14.370Z,25.30
2022-12-11T06:38:18.490Z,23.20
2022-12-11T06:39:22.346Z,25.80
2022-12-11T06:40:26.106Z,24.20
2022-12-11T06:41:30.007Z,23.50
2022-12-11T06:42:33.770Z,24.90
2022-12-11T06:43:39.293Z,21.10
2022-12-11T06:44:42.996Z,24.60
2022-12-11T06:45:46.733Z,22.60
2022-12-11T06:46:50.504Z,24.20
2022-12-11T06:47:54.206Z,24.90
2022-12-11T06:48:57.964Z,22.80
2022-12-11T06:50:02.335Z,24.20
2022-12-11T06:51:07.235Z,26.30
2022-12-11T06:52:15.104Z,24.60
2022-12-11T06:53:22.114Z,23.30
2022-12-11T06:54:27.326Z,25.90
2022-12-11T06:55:31.099Z,29.10
2022-12-11T06:56:34.914Z,24.00
2022-12-11T06:57:38.619Z,27.90
2022-12-11T06:58:44.040Z,25.30
2022-12-11T06:59:48.127Z,21.60
2022-12-11T07:00:51.890Z,23.30
2022-12-11T07:01:55.710Z,26.60
2022-12-11T07:02:59.569Z,25.40
2022-12-11T07:04:03.479Z,24.90
2022-12-11T07:05:07.605Z,23.40
2022-12-11T07:06:11.418Z,25.00
2022-12-11T07:07:16.513Z,24.10
2022-12-11T07:08:20.316Z,21.80
2022-12-11T07:09:24.904Z,23.30
2022-12-11T07:11:32.858Z,22.20
2022-12-11T07:12:36.989Z,25.10
2022-12-11T07:13:42.207Z,24.70
2022-12-11T07:14:46.132Z,27.20
2022-12-11T07:15:49.983Z,25.30
2022-12-11T07:16:53.958Z,26.20
2022-12-11T07:17:57.782Z,23.10
2022-12-11T07:19:01.579Z,24.40
2022-12-11T07:20:06.038Z,23.30
2022-12-11T07:21:12.578Z,21.60
2022-12-11T07:22:16.345Z,27.20
2022-12-11T07:23:20.190Z,25.60
2022-12-11T07:24:24.944Z,23.50
2022-12-11T07:25:28.743Z,23.30
2022-12-11T07:26:32.642Z,24.70
2022-12-11T07:27:36.476Z,26.90
2022-12-11T07:28:40.747Z,27.00
2022-12-11T07:29:44.986Z,25.20
2022-12-11T07:30:49.127Z,26.70
2022-12-11T07:31:53.150Z,26.50
2022-12-11T07:32:57.133Z,25.10
2022-12-11T07:34:04.787Z,23.30
2022-12-11T07:35:10.084Z,24.60
2022-12-11T07:36:16.134Z,23.50
2022-12-11T07:37:20.139Z,26.00
2022-12-11T07:38:24.027Z,24.60
2022-12-11T07:39:27.922Z,27.50
2022-12-11T07:40:33.131Z,26.50
2022-12-11T07:41:37.329Z,24.70
2022-12-11T07:42:47.246Z,25.00
2022-12-11T07:43:51.226Z,22.60
2022-12-11T07:44:54.971Z,24.40
2022-12-11T07:46:02.890Z,25.50
2022-12-11T07:47:06.657Z,25.00
2022-12-11T07:48:10.807Z,25.90
2022-12-11T07:49:14.615Z,26.00
2022-12-11T07:50:19.706Z,26.90
2022-12-11T07:51:29.064Z,25.70
2022-12-11T07:52:34.192Z,25.70
2022-12-11T07:53:38.957Z,21.90
2022-12-11T07:54:42.713Z,27.00
2022-12-11T07:55:46.484Z,23.20
2022-12-11T07:56:53.746Z,24.20
2022-12-11T07:57:57.900Z,25.70
2022-12-11T07:59:03.948Z,24.80
2022-12-11T08:00:08.571Z,26.50
2022-12-11T08:01:22.338Z,26.40
2022-12-11T08:02:26.273Z,25.00
2022-12-11T08:03:30.222Z,23.50
2022-12-11T08:04:33.974Z,25.10
2022-12-11T08:05:37.816Z,24.80
2022-12-11T08:06:42.729Z,26.00
2022-12-11T08:07:47.026Z,24.50
2022-12-11T08:08:50.906Z,24.50
2022-12-11T08:09:54.666Z,26.30
2022-12-11T08:11:02.965Z,25.50
2022-12-11T08:12:06.810Z,27.20
2022-12-11T08:13:11.317Z,25.50
2022-12-11T08:16:22.961Z,23.30
2022-12-11T08:17:31.005Z,27.80
2022-12-11T08:18:38.709Z,24.60
2022-12-11T08:19:42.606Z,23.90
2022-12-11T08:20:46.472Z,28.20
2022-12-11T08:21:50.357Z,26.40
2022-12-11T08:22:58.913Z,25.70
2022-12-11T08:24:03.056Z,26.40
2022-12-11T08:25:07.330Z,27.00
2022-12-11T08:26:14.631Z,25.80
2022-12-11T08:27:18.471Z,24.40
2022-12-11T08:28:23.454Z,24.40
2022-12-11T08:29:27.280Z,25.10
2022-12-11T08:30:32.359Z,23.60
2022-12-11T08:31:36.203Z,26.50
2022-12-11T08:32:40.376Z,28.50
2022-12-11T08:33:45.181Z,29.40
2022-12-11T08:34:51.123Z,26.00
2022-12-11T08:35:54.900Z,26.40
2022-12-11T08:36:58.706Z,26.60
2022-12-11T08:38:02.383Z,25.70
2022-12-11T08:39:06.211Z,25.30
2022-12-11T08:40:10.914Z,27.20
2022-12-11T08:41:20.179Z,27.00
2022-12-11T08:42:24.293Z,27.40
2022-12-11T08:43:28.000Z,26.60
2022-12-11T08:44:31.815Z,24.50
2022-12-11T08:45:35.897Z,27.00
2022-12-11T08:46:39.703Z,26.30
2022-12-11T08:47:43.453Z,28.20
2022-12-11T08:48:47.205Z,28.60
2022-12-11T08:49:51.067Z,23.50
2022-12-11T08:50:54.971Z,28.20
2022-12-11T08:51:58.789Z,23.00
2022-12-11T08:53:02.776Z,29.10
2022-12-11T08:54:06.639Z,26.10
2022-12-11T08:55:10.714Z,23.20
2022-12-11T08:56:18.454Z,28.30
2022-12-11T08:57:22.937Z,29.20
2022-12-11T08:58:27.104Z,25.40
2022-12-11T08:59:30.970Z,28.60
2022-12-11T09:00:35.398Z,29.00
2022-12-11T09:01:39.504Z,29.60
2022-12-11T09:02:43.415Z,30.50
2022-12-11T09:03:48.479Z,31.70
2022-12-11T09:04:52.234Z,30.70
2022-12-11T09:05:55.995Z,28.70
2022-12-11T09:06:59.675Z,27.70
2022-12-11T09:08:03.538Z,28.70
2022-12-11T09:09:07.401Z,32.20
2022-12-11T09:10:11.087Z,28.70
2022-12-11T09:11:17.677Z,26.80
2022-12-11T09:12:21.626Z,25.80
2022-12-11T09:13:25.360Z,27.70
2022-12-11T09:14:29.395Z,29.30
2022-12-11T09:15:33.294Z,25.40
2022-12-11T09:16:40.599Z,27.90
2022-12-11T09:17:44.760Z,30.10
2022-12-11T09:18:50.495Z,30.80
2022-12-11T09:19:54.348Z,24.80
2022-12-11T09:21:02.932Z,26.10
2022-12-11T09:22:06.818Z,25.90
2022-12-11T09:23:10.521Z,28.90
2022-12-11T09:24:15.551Z,30.90
2022-12-11T09:25:19.588Z,26.30
2022-12-11T09:26:24.042Z,28.50
2022-12-11T09:27:29.176Z,28.50
2022-12-11T09:28:35.026Z,26.40
2022-12-11T09:29:39.470Z,28.40
2022-12-11T09:30:43.333Z,28.10
2022-12-11T09:31:48.523Z,28.00
2022-12-11T09:32:53.155Z,30.80
2022-12-11T09:35:02.080Z,27.20
2022-12-11T09:36:06.623Z,23.80
2022-12-11T09:37:11.363Z,25.70
2022-12-11T09:38:15.312Z,29.00
2022-12-11T09:39:19.136Z,25.80
2022-12-11T09:40:23.472Z,26.20
2022-12-11T09:41:38.741Z,26.50
2022-12-11T09:42:56.279Z,25.80
2022-12-11T09:44:14.346Z,26.40
2022-12-11T09:45:18.646Z,27.00
2022-12-11T09:46:24.643Z,25.60
2022-12-11T09:47:42.614Z,31.60
2022-12-11T09:48:48.606Z,27.20
2022-12-11T09:50:23.256Z,23.20
2022-12-11T09:51:36.510Z,23.20
2022-12-11T09:53:04.564Z,25.10
2022-12-11T09:54:13.426Z,23.90
2022-12-11T09:55:21.049Z,23.00
2022-12-11T09:56:33.994Z,25.80
2022-12-11T09:57:43.768Z,25.70
2022-12-11T09:59:20.589Z,25.20
2022-12-11T10:00:41.132Z,25.20
2022-12-11T10:02:03.282Z,28.30
2022-12-11T10:03:20.119Z,29.00
2022-12-11T10:05:08.730Z,25.90
2022-12-11T10:06:28.471Z,25.50
2022-12-11T10:08:00.556Z,29.50
2022-12-11T10:09:25.502Z,28.90
2022-12-11T10:10:54.242Z,30.40
2022-12-11T10:12:17.260Z,29.70
2022-12-11T10:13:40.997Z,29.80
2022-12-11T10:16:14.735Z,27.30
2022-12-11T10:17:23.377Z,33.10
2022-12-11T10:18:29.638Z,28.40
2022-12-11T10:19:33.987Z,29.80
2022-12-11T10:20:40.367Z,29.90
2022-12-11T10:21:45.245Z,28.80
2022-12-11T10:22:51.969Z,32.50
2022-12-11T10:24:00.496Z,31.70
2022-12-11T10:25:14.139Z,30.20
2022-12-11T10:26:20.693Z,27.20
2022-12-11T10:27:31.445Z,32.50
2022-12-11T10:28:36.004Z,34.50
2022-12-11T10:29:40.530Z,32.30
2022-12-11T10:30:57.292Z,30.40
2022-12-11T10:32:02.227Z,33.50
2022-12-11T10:33:12.308Z,34.30
2022-12-11T10:34:33.012Z,31.80
2022-12-11T10:35:43.785Z,32.10
2022-12-11T10:36:49.268Z,32.00
2022-12-11T10:37:58.080Z,27.30
2022-12-11T10:39:03.349Z,30.50
2022-12-11T10:40:08.066Z,34.70
2022-12-11T10:41:14.913Z,33.60
2022-12-11T10:42:20.980Z,31.50
2022-12-11T10:43:34.703Z,31.30
2022-12-11T10:44:38.446Z,30.20
2022-12-11T10:45:53.958Z,29.60
2022-12-11T10:47:18.379Z,27.80
2022-12-11T10:48:23.047Z,31.10
2022-12-11T10:49:31.845Z,31.40
2022-12-11T10:50:35.898Z,33.00
2022-12-11T10:51:39.780Z,30.00
2022-12-11T10:52:45.123Z,30.10
2022-12-11T10:53:53.920Z,30.20
2022-12-11T10:55:07.818Z,26.60
2022-12-11T10:56:12.459Z,27.20
2022-12-11T10:57:16.266Z,29.90
2022-12-11T10:58:24.014Z,31.90
2022-12-11T10:59:33.898Z,29.50
2022-12-11T11:00:41.755Z,31.40
2022-12-11T11:01:47.405Z,29.70
2022-12-11T11:02:51.356Z,32.40
2022-12-11T11:03:59.668Z,28.80
2022-12-11T11:05:13.138Z,34.30
2022-12-11T11:06:20.668Z,29.50
2022-12-11T11:07:28.332Z,34.00
2022-12-11T11:08:42.424Z,34.30
2022-12-11T11:09:46.478Z,27.50
2022-12-11T11:10:59.275Z,29.60
2022-12-11T11:12:07.844Z,28.60
2022-12-11T11:13:13.220Z,30.90
2022-12-11T11:14:20.227Z,32.30
2022-12-11T11:15:30.490Z,32.90
2022-12-11T11:16:39.101Z,31.00
2022-12-11T11:17:54.501Z,31.10
2022-12-11T11:19:02.047Z,31.50
2022-12-11T11:20:13.893Z,39.20
2022-12-11T11:21:20.349Z,31.80
2022-12-11T11:22:24.211Z,36.40
2022-12-11T11:23:28.946Z,35.60
2022-12-11T11:25:50.363Z,38.90
2022-12-11T11:27:12.841Z,35.10
2022-12-11T11:28:25.986Z,39.60
2022-12-11T11:29:35.310Z,35.60
2022-12-11T11:30:41.518Z,41.30
2022-12-11T11:31:45.342Z,35.60
2022-12-11T11:32:52.427Z,35.60
2022-12-11T11:34:03.902Z,35.00
2022-12-11T11:35:11.623Z,36.60
2022-12-11T11:36:26.365Z,31.50
2022-12-11T11:37:34.345Z,35.10
2022-12-11T11:38:44.660Z,40.90
2022-12-11T11:39:52.689Z,39.60
2022-12-11T11:41:11.586Z,38.50
2022-12-11T11:42:29.895Z,49.10
2022-12-11T11:43:50.306Z,46.20
2022-12-11T11:45:05.379Z,42.30
2022-12-11T11:46:25.433Z,42.00
2022-12-11T11:47:38.389Z,36.50
2022-12-11T11:48:47.998Z,41.50
2022-12-11T11:50:00.046Z,39.50
2022-12-11T11:51:13.669Z,36.90
2022-12-11T11:52:32.258Z,43.50
2022-12-11T11:53:40.481Z,38.80
2022-12-11T11:54:56.812Z,36.00
2022-12-11T11:56:23.888Z,36.40
2022-12-11T11:57:45.594Z,37.50
2022-12-11T11:59:06.738Z,34.10
2022-12-11T12:00:20.920Z,35.30
2022-12-11T12:01:25.698Z,35.20
2022-12-11T12:02:29.570Z,38.10
2022-12-11T12:03:33.492Z,40.80
2022-12-11T12:04:37.310Z,36.60
2022-12-11T12:05:57.506Z,33.00
2022-12-11T12:07:07.310Z,36.50
2022-12-11T12:08:27.074Z,32.90
2022-12-11T12:09:33.827Z,32.30
2022-12-11T12:10:50.548Z,36.70
2022-12-11T12:12:04.129Z,35.50
2022-12-11T12:15:18.305Z,32.00
2022-12-11T12:16:58.188Z,29.90
2022-12-11T12:18:27.111Z,32.70
2022-12-11T12:19:52.932Z,31.50
2022-12-11T12:21:27.359Z,34.30
2022-12-11T12:22:37.932Z,30.30
2022-12-11T12:24:22.212Z,30.00
2022-12-11T12:25:40.659Z,26.80
2022-12-11T12:27:29.155Z,30.70
2022-12-11T12:28:55.677Z,31.10
2022-12-11T12:30:22.022Z,27.80
2022-12-11T12:31:36.763Z,24.40
2022-12-11T12:33:04.592Z,34.00
2022-12-11T12:34:14.337Z,28.90
2022-12-11T12:35:38.053Z,25.70
2022-12-11T12:37:03.043Z,31.30
2022-12-11T12:38:33.059Z,30.50
2022-12-11T12:41:14.189Z,26.50
2022-12-11T12:42:39.366Z,27.50
2022-12-11T12:43:59.486Z,29.60
2022-12-11T12:45:12.779Z,28.50
2022-12-11T12:46:35.112Z,28.50
2022-12-11T12:47:41.083Z,30.80
2022-12-11T12:48:45.487Z,31.20
2022-12-11T12:49:50.871Z,32.00
2022-12-11T12:50:55.884Z,28.70
2022-12-11T12:52:00.776Z,32.00
2022-12-11T12:53:06.736Z,31.90
2022-12-11T12:54:16.548Z,30.30
2022-12-11T12:55:24.949Z,29.20
2022-12-11T12:56:32.232Z,27.90
2022-12-11T12:57:38.520Z,29.60
2022-12-11T12:58:44.957Z,28.00
2022-12-11T12:59:55.395Z,32.50
2022-12-11T13:01:19.259Z,33.80
2022-12-11T13:02:23.562Z,33.90
2022-12-11T13:03:32.227Z,27.30
2022-12-11T13:04:58.484Z,31.20
2022-12-11T13:06:08.197Z,28.00
2022-12-11T13:07:29.822Z,29.60
2022-12-11T13:08:45.950Z,24.20
2022-12-11T13:10:21.704Z,28.10
2022-12-11T13:11:34.116Z,27.70
2022-12-11T13:12:46.447Z,30.80
2022-12-11T13:14:22.346Z,27.70
2022-12-11T13:15:42.597Z,30.00
2022-12-11T13:16:48.742Z,29.90
2022-12-11T13:17:53.171Z,30.50
2022-12-11T13:18:56.971Z,26.40
2022-12-11T13:20:18.954Z,33.90
2022-12-11T13:21:34.351Z,28.30
2022-12-11T13:22:48.826Z,33.00
2022-12-11T13:23:52.647Z,35.80
2022-12-11T13:25:16.760Z,31.30
2022-12-11T13:26:31.943Z,28.40
2022-12-11T13:27:35.679Z,30.80
2022-12-11T13:28:39.562Z,29.30
2022-12-11T13:29:43.462Z,32.40
2022-12-11T13:31:16.924Z,37.10
2022-12-11T13:32:29.925Z,33.00
2022-12-11T13:33:41.446Z,29.90
2022-12-11T13:34:55.381Z,31.60
2022-12-11T13:36:16.901Z,29.40
2022-12-11T13:37:41.228Z,31.90
2022-12-11T13:38:54.960Z,28.60
2022-12-11T13:40:00.166Z,29.80
2022-12-11T13:41:10.218Z,28.80
2022-12-11T13:42:33.062Z,34.10
2022-12-11T13:43:41.893Z,33.90
2022-12-11T13:44:48.345Z,29.30
2022-12-11T13:45:56.724Z,31.10
2022-12-11T13:47:03.110Z,28.40
2022-12-11T13:48:36.851Z,33.70
2022-12-11T13:49:43.603Z,29.90
2022-12-11T13:50:48.374Z,29.60
2022-12-11T13:51:58.383Z,30.70
2022-12-11T13:53:03.308Z,29.00
2022-12-11T13:54:17.945Z,28.00
2022-12-11T13:55:33.180Z,32.30
2022-12-11T13:56:37.010Z,32.60
2022-12-11T13:57:46.160Z,29.30
2022-12-11T13:58:50.062Z,31.80
2022-12-11T13:59:56.840Z,30.40
2022-12-11T14:01:00.602Z,32.30
2022-12-11T14:02:14.875Z,28.20
2022-12-11T14:03:19.027Z,32.00
2022-12-11T14:04:23.957Z,29.60
2022-12-11T14:05:28.515Z,33.50
2022-12-11T14:06:34.664Z,31.30
2022-12-11T14:07:42.605Z,32.50
2022-12-11T14:08:51.771Z,30.60
2022-12-11T14:10:01.980Z,31.40
2022-12-11T14:11:06.489Z,29.90
2022-12-11T14:12:19.891Z,27.60
2022-12-11T14:13:27.231Z,31.10
2022-12-11T14:15:03.465Z,29.30
2022-12-11T14:16:07.761Z,26.70
2022-12-11T14:17:17.738Z,32.10
2022-12-11T14:18:24.557Z,30.50
2022-12-11T14:19:29.370Z,29.50
2022-12-11T14:20:34.406Z,30.60
2022-12-11T14:21:38.205Z,30.20
2022-12-11T14:22:41.979Z,29.80
2022-12-11T14:23:52.928Z,29.20
2022-12-11T14:25:03.603Z,32.10
2022-12-11T14:26:18.966Z,28.10
2022-12-11T14:27:24.140Z,29.10
2022-12-11T14:28:30.651Z,26.60
2022-12-11T14:29:34.451Z,30.20
2022-12-11T14:30:44.969Z,30.70
2022-12-11T14:31:48.814Z,29.40
2022-12-11T14:32:56.844Z,27.10
2022-12-11T14:34:14.399Z,22.80
2022-12-11T14:35:26.960Z,24.60
2022-12-11T14:36:33.094Z,27.20
2022-12-11T14:37:37.189Z,25.40
2022-12-11T14:38:56.511Z,30.60
2022-12-11T14:40:17.160Z,25.50
2022-12-11T14:41:41.027Z,26.10
2022-12-11T14:43:56.079Z,22.40
2022-12-11T14:45:07.332Z,27.10
2022-12-11T14:46:23.835Z,26.30
2022-12-11T14:47:32.431Z,25.00
2022-12-11T14:48:47.987Z,29.30
2022-12-11T14:49:58.793Z,28.50
2022-12-11T14:51:07.174Z,31.10
2022-12-11T14:52:19.997Z,28.00
2022-12-11T14:53:32.811Z,29.50
2022-12-11T14:54:43.718Z,28.80
2022-12-11T14:55:49.860Z,29.50
2022-12-11T14:56:54.499Z,29.20